createdAt,value
2023-01-21T00:01:03.493Z,1.00
2023-01-21T00:03:30.552Z,1.20
2023-01-21T00:05:57.798Z,1.30
2023-01-21T00:08:25.633Z,1.00
2023-01-21T00:10:53.117Z,0.90
2023-01-21T00:13:20.169Z,1.10
2023-01-21T00:15:47.182Z,0.80
2023-01-21T00:18:14.188Z,1.00
2023-01-21T00:20:41.276Z,1.10
2023-01-21T00:23:10.231Z,0.90
2023-01-21T00:25:37.253Z,1.00
2023-01-21T00:28:04.289Z,1.00
2023-01-21T00:30:31.273Z,1.10
2023-01-21T00:32:58.261Z,0.90
2023-01-21T00:35:25.254Z,0.80
2023-01-21T00:37:52.330Z,1.00
2023-01-21T00:40:19.892Z,0.90
2023-01-21T00:42:46.870Z,0.90
2023-01-21T00:45:13.969Z,0.80
2023-01-21T00:47:41.337Z,1.00
2023-01-21T00:50:09.348Z,0.80
2023-01-21T00:52:36.451Z,1.10
2023-01-21T00:55:04.019Z,1.10
2023-01-21T00:57:31.153Z,1.50
2023-01-21T00:59:58.379Z,1.80
2023-01-21T01:02:25.475Z,1.70
2023-01-21T01:04:52.575Z,2.20
2023-01-21T01:07:19.521Z,2.10
2023-01-21T01:09:46.475Z,2.30
2023-01-21T01:12:13.462Z,2.50
2023-01-21T01:14:40.402Z,2.50
2023-01-21T01:17:08.514Z,2.30
2023-01-21T01:19:35.423Z,2.60
2023-01-21T01:22:02.353Z,2.50
2023-01-21T01:24:30.222Z,2.20
2023-01-21T01:26:57.184Z,2.30
2023-01-21T01:29:24.496Z,2.00
2023-01-21T01:31:51.514Z,2.20
2023-01-21T01:34:18.654Z,2.70
2023-01-21T01:36:45.547Z,2.30
2023-01-21T01:39:12.475Z,3.40
2023-01-21T01:41:39.450Z,2.50
2023-01-21T01:44:44.424Z,2.50
2023-01-21T01:47:11.432Z,2.10
2023-01-21T01:49:38.473Z,2.20
2023-01-21T01:52:07.619Z,2.40
2023-01-21T01:54:48.117Z,2.20
2023-01-21T01:57:18.137Z,2.00
2023-01-21T01:59:46.633Z,1.90
2023-01-21T02:02:18.883Z,1.70
2023-01-21T02:04:53.635Z,1.60
2023-01-21T02:07:23.291Z,1.90
2023-01-21T02:09:52.763Z,1.80
2023-01-21T02:12:20.035Z,2.00
2023-01-21T02:14:48.153Z,2.30
2023-01-21T02:17:44.389Z,2.70
2023-01-21T02:20:20.399Z,1.70
2023-01-21T02:23:11.743Z,1.80
2023-01-21T02:26:10.670Z,1.50
2023-01-21T02:28:49.501Z,1.80
2023-01-21T02:31:25.635Z,1.70
2023-01-21T02:34:04.533Z,1.50
2023-01-21T02:36:37.399Z,1.80
2023-01-21T02:39:19.320Z,1.30
2023-01-21T02:42:07.718Z,1.60
2023-01-21T02:45:03.702Z,1.80
2023-01-21T02:47:54.049Z,1.40
2023-01-21T02:50:26.005Z,1.40
2023-01-21T02:53:01.150Z,1.10
2023-01-21T02:55:37.497Z,0.90
2023-01-21T02:58:13.004Z,0.70
2023-01-21T03:00:55.093Z,0.90
2023-01-21T03:03:34.623Z,0.90
2023-01-21T03:06:26.258Z,1.10
2023-01-21T03:09:20.316Z,1.20
2023-01-21T03:12:21.920Z,1.40
2023-01-21T03:15:22.531Z,1.30
2023-01-21T03:18:24.860Z,1.10
2023-01-21T03:21:01.315Z,1.20
2023-01-21T03:23:32.504Z,1.10
2023-01-21T03:26:00.408Z,1.50
2023-01-21T03:28:31.986Z,1.30
2023-01-21T03:31:11.897Z,1.20
2023-01-21T03:33:46.733Z,1.40
2023-01-21T03:36:46.456Z,1.60
2023-01-21T03:39:34.711Z,1.50
2023-01-21T03:42:02.406Z,1.60
2023-01-21T03:44:29.498Z,1.50
2023-01-21T03:47:04.307Z,1.60
2023-01-21T03:49:37.984Z,1.70
2023-01-21T03:52:06.227Z,1.60
2023-01-21T03:54:33.259Z,1.40
2023-01-21T03:57:00.294Z,1.60
2023-01-21T03:59:27.225Z,1.90
2023-01-21T04:01:54.368Z,1.50
2023-01-21T04:04:21.424Z,1.70
2023-01-21T04:06:48.450Z,2.10
2023-01-21T04:09:15.560Z,1.60
2023-01-21T04:11:42.556Z,1.60
2023-01-21T04:14:09.561Z,1.50
2023-01-21T04:16:36.552Z,1.60
2023-01-21T04:19:03.846Z,1.60
2023-01-21T04:21:30.994Z,1.70
2023-01-21T04:23:57.950Z,1.60
2023-01-21T04:26:25.031Z,1.60
2023-01-21T04:28:51.995Z,1.70
2023-01-21T04:31:19.030Z,2.20
2023-01-21T04:33:45.986Z,1.50
2023-01-21T04:36:13.169Z,2.20
2023-01-21T04:38:40.195Z,2.20
2023-01-21T04:41:07.133Z,1.70
2023-01-21T04:43:34.107Z,2.10
2023-01-21T04:46:01.496Z,2.10
2023-01-21T04:48:28.515Z,3.00
2023-01-21T04:50:55.448Z,2.90
2023-01-21T04:53:22.518Z,2.00
2023-01-21T04:55:52.929Z,2.40
2023-01-21T04:58:20.709Z,1.80
2023-01-21T05:00:47.661Z,2.50
2023-01-21T05:03:16.051Z,2.60
2023-01-21T05:05:43.020Z,2.50
2023-01-21T05:08:09.950Z,1.70
2023-01-21T05:10:36.904Z,2.00
2023-01-21T05:13:03.990Z,2.70
2023-01-21T05:15:31.639Z,2.10
2023-01-21T05:17:59.932Z,2.40
2023-01-21T05:20:27.111Z,1.80
2023-01-21T05:22:54.036Z,1.80
2023-01-21T05:25:20.950Z,2.20
2023-01-21T05:27:52.769Z,1.90
2023-01-21T05:30:20.344Z,2.00
2023-01-21T05:32:54.435Z,1.50
2023-01-21T05:35:23.302Z,1.80
2023-01-21T05:37:50.432Z,2.10
2023-01-21T05:40:18.221Z,2.00
2023-01-21T05:42:45.605Z,2.20
2023-01-21T05:45:13.258Z,2.10
2023-01-21T05:47:40.560Z,1.80
2023-01-21T05:50:08.774Z,1.70
2023-01-21T05:52:35.857Z,2.00
2023-01-21T05:55:03.589Z,2.30
2023-01-21T05:57:31.405Z,1.80
2023-01-21T05:59:58.416Z,1.40
2023-01-21T06:02:26.114Z,1.80
2023-01-21T06:04:53.151Z,1.50
2023-01-21T06:07:20.290Z,1.70
2023-01-21T06:09:47.306Z,1.60
2023-01-21T06:12:14.284Z,1.90
2023-01-21T06:14:41.322Z,1.60
2023-01-21T06:17:08.340Z,1.60
2023-01-21T06:19:35.380Z,1.70
2023-01-21T06:22:02.377Z,1.30
2023-01-21T06:24:29.352Z,1.60
2023-01-21T06:26:56.304Z,1.80
2023-01-21T06:29:23.308Z,1.50
2023-01-21T06:31:50.352Z,1.40
2023-01-21T06:34:17.387Z,1.10
2023-01-21T06:36:44.399Z,1.00
2023-01-21T06:39:11.479Z,1.10
2023-01-21T06:41:38.883Z,1.20
2023-01-21T06:44:06.059Z,1.20
2023-01-21T06:46:33.215Z,1.40
2023-01-21T06:49:00.253Z,1.60
2023-01-21T06:51:27.493Z,1.50
2023-01-21T06:53:54.490Z,1.60
2023-01-21T06:56:22.049Z,1.40
2023-01-21T06:58:48.998Z,2.50
2023-01-21T07:01:16.030Z,2.40
2023-01-21T07:03:43.730Z,2.00
2023-01-21T07:06:10.775Z,1.80
2023-01-21T07:08:37.708Z,2.20
2023-01-21T07:11:04.863Z,2.00
2023-01-21T07:13:31.844Z,2.10
2023-01-21T07:16:01.993Z,2.50
2023-01-21T07:18:29.083Z,2.60
2023-01-21T07:20:56.893Z,2.20
2023-01-21T07:23:23.863Z,2.70
2023-01-21T07:25:51.001Z,2.30
2023-01-21T07:28:18.018Z,2.90
2023-01-21T07:30:45.061Z,3.00
2023-01-21T07:33:12.125Z,3.60
2023-01-21T07:35:39.225Z,2.60
2023-01-21T07:38:06.233Z,3.60
2023-01-21T07:40:33.364Z,2.60
2023-01-21T07:43:00.447Z,3.00
2023-01-21T07:45:27.383Z,2.10
2023-01-21T07:47:54.436Z,2.60
2023-01-21T07:50:21.472Z,2.10
2023-01-21T07:52:48.662Z,1.80
2023-01-21T07:55:16.041Z,1.80
2023-01-21T07:57:43.070Z,2.40
2023-01-21T08:00:10.596Z,2.00
2023-01-21T08:02:40.416Z,1.50
2023-01-21T08:05:07.939Z,1.80
2023-01-21T08:07:35.381Z,1.90
2023-01-21T08:10:02.423Z,1.90
2023-01-21T08:12:29.404Z,1.90
2023-01-21T08:14:56.284Z,1.80
2023-01-21T08:17:23.287Z,1.60
2023-01-21T08:19:50.217Z,2.10
2023-01-21T08:22:17.172Z,2.60
2023-01-21T08:24:44.110Z,2.40
2023-01-21T08:27:11.045Z,2.60
2023-01-21T08:29:39.419Z,2.30
2023-01-21T08:32:06.398Z,2.90
2023-01-21T08:34:33.506Z,2.70
2023-01-21T08:37:00.845Z,2.80
2023-01-21T08:39:27.771Z,3.30
2023-01-21T08:41:54.674Z,3.60
2023-01-21T08:44:21.600Z,2.50
2023-01-21T08:46:49.059Z,2.70
2023-01-21T08:49:16.088Z,2.30
2023-01-21T08:51:43.270Z,3.20
2023-01-21T08:54:10.327Z,3.10
2023-01-21T08:56:37.281Z,3.20
2023-01-21T08:59:04.243Z,2.90
2023-01-21T09:01:31.309Z,3.20
2023-01-21T09:04:00.425Z,3.10
2023-01-21T09:06:29.276Z,3.20
2023-01-21T09:08:56.616Z,3.10
2023-01-21T09:11:24.045Z,3.70
2023-01-21T09:13:51.248Z,4.20
2023-01-21T09:16:20.954Z,4.50
2023-01-21T09:18:48.603Z,3.50
2023-01-21T09:21:16.178Z,3.60
2023-01-21T09:23:43.858Z,3.30
2023-01-21T09:26:24.675Z,4.00
2023-01-21T09:28:59.320Z,3.90
2023-01-21T09:31:28.414Z,3.80
2023-01-21T09:33:59.039Z,3.80
2023-01-21T09:36:29.583Z,3.60
2023-01-21T09:38:57.106Z,3.60
2023-01-21T09:41:34.518Z,3.80
2023-01-21T09:44:33.268Z,3.50
2023-01-21T09:47:31.095Z,3.60
2023-01-21T09:50:04.887Z,3.60
2023-01-21T09:52:38.111Z,2.90
2023-01-21T09:55:13.990Z,3.60
2023-01-21T09:58:04.560Z,2.80
2023-01-21T10:00:48.969Z,3.90
2023-01-21T10:03:15.892Z,3.40
2023-01-21T10:06:08.834Z,3.60
2023-01-21T10:08:44.841Z,4.30
2023-01-21T10:11:41.346Z,3.60
2023-01-21T10:14:26.445Z,2.80
2023-01-21T10:17:12.587Z,4.20
2023-01-21T10:19:51.874Z,3.30
2023-01-21T10:22:24.986Z,4.00
2023-01-21T10:25:03.232Z,4.20
2023-01-21T10:27:34.896Z,4.80
2023-01-21T10:30:20.356Z,4.40
2023-01-21T10:32:50.870Z,4.50
2023-01-21T10:35:24.065Z,4.50
2023-01-21T10:38:05.497Z,4.00
2023-01-21T10:40:47.235Z,4.70
2023-01-21T10:43:35.510Z,5.10
2023-01-21T10:46:08.256Z,4.50
2023-01-21T10:49:10.575Z,5.40
2023-01-21T10:51:50.451Z,4.20
2023-01-21T10:54:36.047Z,4.00
2023-01-21T10:57:14.400Z,3.30
2023-01-21T10:59:42.404Z,3.30
2023-01-21T11:02:12.111Z,4.40
2023-01-21T11:04:41.371Z,4.80
2023-01-21T11:07:12.329Z,3.30
2023-01-21T11:12:15.675Z,3.40
2023-01-21T11:14:48.466Z,3.00
2023-01-21T11:17:35.895Z,3.50
2023-01-21T11:20:15.020Z,3.50
2023-01-21T11:22:45.879Z,3.00
2023-01-21T11:25:36.963Z,3.30
2023-01-21T11:30:49.527Z,3.40
2023-01-21T11:33:25.302Z,3.60
2023-01-21T11:35:54.177Z,4.50
2023-01-21T11:38:33.401Z,3.10
2023-01-21T11:41:22.356Z,3.50
2023-01-21T11:43:55.050Z,4.30
2023-01-21T11:46:38.356Z,3.90
2023-01-21T11:49:05.220Z,4.00
2023-01-21T11:51:33.020Z,3.80
2023-01-21T11:54:22.787Z,4.30
2023-01-21T11:56:58.964Z,4.40
2023-01-21T11:59:35.265Z,4.30
2023-01-21T12:02:05.158Z,4.80
2023-01-21T12:04:33.982Z,3.10
2023-01-21T12:07:01.724Z,4.60
2023-01-21T12:09:28.947Z,3.50
2023-01-21T12:12:39.900Z,3.10
2023-01-21T12:15:40.580Z,3.50
2023-01-21T12:18:36.891Z,3.00
2023-01-21T12:21:10.305Z,2.90
2023-01-21T12:23:49.339Z,4.00
2023-01-21T12:26:53.769Z,3.30
2023-01-21T12:29:43.515Z,2.60
2023-01-21T12:32:32.772Z,3.10
2023-01-21T12:35:08.302Z,3.00
2023-01-21T12:37:50.797Z,3.30
2023-01-21T12:40:21.362Z,3.90
2023-01-21T12:42:54.663Z,4.40
2023-01-21T12:45:37.599Z,3.40
2023-01-21T12:48:21.308Z,3.30
2023-01-21T12:50:54.909Z,3.40
2023-01-21T12:53:45.209Z,3.40
2023-01-21T12:56:12.142Z,3.20
2023-01-21T12:58:45.484Z,3.30
2023-01-21T13:01:18.605Z,3.70
2023-01-21T13:03:51.712Z,3.40
2023-01-21T13:06:29.728Z,3.50
2023-01-21T13:09:35.253Z,3.40
2023-01-21T13:12:16.896Z,3.80
2023-01-21T13:14:48.488Z,2.90
2023-01-21T13:17:22.034Z,3.30
2023-01-21T13:19:49.855Z,3.10
2023-01-21T13:22:42.456Z,3.50
2023-01-21T13:25:19.643Z,4.30
2023-01-21T13:27:59.595Z,4.20
2023-01-21T13:30:39.802Z,4.00
2023-01-21T13:33:06.777Z,4.10
2023-01-21T13:35:42.646Z,3.40
2023-01-21T13:38:34.653Z,3.10
2023-01-21T13:41:33.611Z,3.40
2023-01-21T13:44:44.015Z,3.10
2023-01-21T13:47:26.190Z,3.70
2023-01-21T13:49:56.044Z,2.90
2023-01-21T13:52:27.243Z,3.60
2023-01-21T13:54:57.352Z,3.60
2023-01-21T13:57:43.647Z,3.00
2023-01-21T14:00:31.299Z,4.30
2023-01-21T14:03:06.587Z,3.60
2023-01-21T14:05:40.210Z,4.20
2023-01-21T14:08:20.535Z,3.70
2023-01-21T14:10:53.457Z,3.90
2023-01-21T14:13:38.861Z,3.50
2023-01-21T14:16:30.369Z,4.00
2023-01-21T14:19:21.510Z,3.30
2023-01-21T14:24:36.996Z,3.90
2023-01-21T14:27:14.967Z,4.70
2023-01-21T14:29:50.397Z,4.40
2023-01-21T14:32:40.575Z,4.00
2023-01-21T14:35:27.719Z,4.20
2023-01-21T14:38:06.763Z,4.70
2023-01-21T14:40:43.432Z,3.70
2023-01-21T14:43:39.868Z,4.30
2023-01-21T14:46:33.162Z,4.70
2023-01-21T14:49:08.355Z,4.40
2023-01-21T14:51:49.360Z,4.60
2023-01-21T14:57:13.746Z,3.80
2023-01-21T14:59:45.651Z,4.30
2023-01-21T15:02:33.606Z,4.60
2023-01-21T15:05:25.394Z,4.10
2023-01-21T15:08:19.027Z,3.70
2023-01-21T15:10:57.971Z,3.90
2023-01-21T15:13:34.532Z,4.00
2023-01-21T15:16:32.178Z,3.90
2023-01-21T15:19:08.263Z,4.10
2023-01-21T15:21:41.756Z,4.00
2023-01-21T15:24:18.116Z,4.40
2023-01-21T15:27:21.308Z,4.60
2023-01-21T15:29:54.370Z,4.30
2023-01-21T15:32:25.893Z,3.90
2023-01-21T15:35:17.089Z,4.40
2023-01-21T15:37:46.573Z,5.10
2023-01-21T15:40:39.342Z,5.30
2023-01-21T15:43:13.075Z,5.20
2023-01-21T15:45:53.628Z,5.60
2023-01-21T15:48:41.152Z,5.50
2023-01-21T15:51:27.256Z,4.00
2023-01-21T15:53:59.982Z,4.50
2023-01-21T15:56:48.536Z,4.90
2023-01-21T15:59:24.533Z,5.00
2023-01-21T16:02:07.856Z,5.10
2023-01-21T16:04:44.542Z,5.20
2023-01-21T16:07:17.788Z,4.80
2023-01-21T16:10:02.965Z,5.20
2023-01-21T16:12:46.915Z,4.70
2023-01-21T16:15:27.817Z,4.90
2023-01-21T16:18:06.075Z,4.70
2023-01-21T16:20:33.920Z,7.80
2023-01-21T16:23:05.115Z,6.60
2023-01-21T16:25:32.183Z,6.00
2023-01-21T16:27:59.125Z,7.10
2023-01-21T16:30:29.124Z,7.40
2023-01-21T16:33:16.027Z,5.20
2023-01-21T16:35:49.766Z,5.80
2023-01-21T16:38:28.812Z,5.60
2023-01-21T16:41:07.959Z,4.90
2023-01-21T16:43:49.294Z,5.10
2023-01-21T16:46:45.561Z,4.80
2023-01-21T16:49:15.509Z,9.80
2023-01-21T16:51:56.440Z,5.00
2023-01-21T16:56:57.721Z,4.00
2023-01-21T16:59:28.901Z,3.70
2023-01-21T17:01:57.997Z,4.60
2023-01-21T17:04:25.209Z,4.20
2023-01-21T17:06:53.422Z,4.50
2023-01-21T17:09:34.292Z,5.50
2023-01-21T17:12:06.455Z,4.10
2023-01-21T17:14:34.961Z,4.10
2023-01-21T17:17:06.173Z,4.60
2023-01-21T17:19:37.132Z,5.60
2023-01-21T17:24:43.401Z,6.10
2023-01-21T17:27:16.232Z,6.20
2023-01-21T17:29:45.418Z,7.00
2023-01-21T17:32:30.582Z,7.30
2023-01-21T17:35:07.049Z,7.00
2023-01-21T17:38:03.680Z,7.40
2023-01-21T17:40:58.248Z,7.00
2023-01-21T17:43:27.477Z,7.30
2023-01-21T17:45:56.700Z,7.30
2023-01-21T17:48:33.454Z,11.20
2023-01-21T17:51:05.782Z,9.00
2023-01-21T17:53:40.512Z,7.00
2023-01-21T17:56:08.379Z,7.30
2023-01-21T17:58:51.657Z,6.20
2023-01-21T18:01:20.671Z,5.70
2023-01-21T18:03:48.263Z,5.80
2023-01-21T18:06:19.376Z,5.70
2023-01-21T18:08:46.335Z,5.60
2023-01-21T18:11:15.702Z,7.30
2023-01-21T18:13:43.091Z,8.60
2023-01-21T18:16:10.249Z,5.70
2023-01-21T18:18:38.250Z,6.30
2023-01-21T18:21:05.736Z,5.40
2023-01-21T18:23:32.757Z,5.30
2023-01-21T18:25:59.820Z,5.00
2023-01-21T18:28:28.408Z,4.50
2023-01-21T18:30:57.435Z,4.40
2023-01-21T18:33:25.186Z,5.30
2023-01-21T18:35:52.437Z,5.40
2023-01-21T18:38:26.570Z,5.40
2023-01-21T18:40:56.966Z,5.50
2023-01-21T18:43:27.161Z,5.70
2023-01-21T18:45:54.828Z,5.20
2023-01-21T18:48:28.595Z,5.20
2023-01-21T18:50:55.853Z,5.60
2023-01-21T18:53:23.057Z,6.20
2023-01-21T18:55:53.291Z,5.90
2023-01-21T18:58:20.402Z,4.80
2023-01-21T19:00:48.224Z,5.00
2023-01-21T19:03:16.154Z,4.80
2023-01-21T19:05:47.080Z,5.20
2023-01-21T19:08:17.597Z,5.40
2023-01-21T19:10:44.753Z,5.00
2023-01-21T19:13:12.121Z,5.20
2023-01-21T19:15:39.145Z,5.70
2023-01-21T19:18:10.812Z,6.10
2023-01-21T19:20:41.143Z,5.10
2023-01-21T19:23:16.552Z,5.20
2023-01-21T19:25:55.011Z,5.10
2023-01-21T19:28:24.201Z,4.30
2023-01-21T19:30:54.690Z,4.90
2023-01-21T19:33:22.270Z,4.80
2023-01-21T19:35:54.413Z,5.20
2023-01-21T19:38:22.554Z,5.10
2023-01-21T19:40:50.172Z,5.30
2023-01-21T19:43:21.480Z,5.00
2023-01-21T19:45:50.905Z,4.60
2023-01-21T19:48:20.166Z,5.40
2023-01-21T19:50:47.495Z,5.70
2023-01-21T19:53:17.465Z,5.50
2023-01-21T19:55:45.723Z,6.20
2023-01-21T19:58:19.672Z,6.00
2023-01-21T20:00:50.398Z,6.70
2023-01-21T20:03:19.400Z,7.80
2023-01-21T20:05:53.904Z,6.90
2023-01-21T20:08:26.927Z,6.60
2023-01-21T20:10:53.912Z,7.70
2023-01-21T20:13:21.071Z,7.60
2023-01-21T20:15:50.577Z,8.30
2023-01-21T20:18:21.616Z,8.30
2023-01-21T20:20:49.172Z,8.50
2023-01-21T20:23:16.953Z,7.90
2023-01-21T20:25:46.328Z,7.40
2023-01-21T20:28:21.145Z,7.80
2023-01-21T20:30:49.368Z,8.20
2023-01-21T20:33:22.265Z,8.00
2023-01-21T20:35:52.168Z,7.90
2023-01-21T20:38:34.072Z,9.80
2023-01-21T20:41:02.811Z,9.40
2023-01-21T20:43:31.000Z,8.50
2023-01-21T20:46:01.277Z,8.20
2023-01-21T20:48:36.112Z,8.10
2023-01-21T20:51:03.578Z,8.50
2023-01-21T20:53:30.738Z,8.80
2023-01-21T20:56:00.207Z,7.40
2023-01-21T20:58:27.611Z,6.80
2023-01-21T21:00:54.925Z,7.30
2023-01-21T21:03:22.105Z,7.60
2023-01-21T21:05:49.191Z,7.20
2023-01-21T21:08:18.914Z,8.10
2023-01-21T21:10:46.575Z,7.60
2023-01-21T21:13:14.929Z,7.20
2023-01-21T21:15:45.029Z,8.20
2023-01-21T21:18:13.935Z,8.10
2023-01-21T21:20:41.629Z,8.20
2023-01-21T21:23:13.694Z,7.40
2023-01-21T21:25:43.471Z,7.80
2023-01-21T21:28:13.241Z,8.30
2023-01-21T21:30:40.272Z,11.70
2023-01-21T21:33:20.184Z,15.50
2023-01-21T21:35:47.899Z,10.90
2023-01-21T21:38:22.884Z,10.90
2023-01-21T21:40:52.469Z,10.90
2023-01-21T21:43:32.836Z,9.80
2023-01-21T21:46:26.302Z,11.50
2023-01-21T21:48:53.342Z,9.60
2023-01-21T21:51:23.621Z,8.50
2023-01-21T21:53:51.482Z,9.20
2023-01-21T21:56:23.025Z,8.40
2023-01-21T21:58:50.735Z,9.10
2023-01-21T22:01:23.766Z,9.60
2023-01-21T22:03:51.695Z,8.10
2023-01-21T22:06:20.678Z,8.00
2023-01-21T22:08:48.591Z,7.20
2023-01-21T22:11:17.891Z,8.70
2023-01-21T22:13:49.887Z,8.10
2023-01-21T22:16:21.488Z,8.00
2023-01-21T22:18:48.542Z,7.50
2023-01-21T22:21:24.620Z,7.40
2023-01-21T22:23:52.079Z,7.30
2023-01-21T22:26:21.551Z,7.70
2023-01-21T22:28:50.739Z,7.60
2023-01-21T22:31:29.799Z,6.80
2023-01-21T22:33:58.554Z,7.80
2023-01-21T22:36:29.018Z,6.90
2023-01-21T22:38:56.105Z,6.90
2023-01-21T22:41:23.831Z,8.20
2023-01-21T22:43:51.569Z,7.10
2023-01-21T22:46:29.519Z,7.30
2023-01-21T22:48:56.958Z,6.40
2023-01-21T22:51:24.061Z,6.70
2023-01-21T22:53:52.171Z,5.90
2023-01-21T22:56:31.433Z,6.30
2023-01-21T22:59:02.637Z,6.00
2023-01-21T23:01:30.862Z,6.10
2023-01-21T23:03:59.193Z,6.20
2023-01-21T23:06:26.340Z,6.00
2023-01-21T23:08:53.483Z,6.70
2023-01-21T23:11:20.936Z,6.20
2023-01-21T23:13:49.105Z,6.60
2023-01-21T23:16:18.492Z,6.60
2023-01-21T23:18:45.548Z,5.80
2023-01-21T23:21:19.621Z,6.20
2023-01-21T23:23:47.034Z,5.50
2023-01-21T23:26:14.673Z,6.40
2023-01-21T23:28:42.689Z,5.60
2023-01-21T23:31:15.577Z,6.70
2023-01-21T23:33:42.636Z,6.00
2023-01-21T23:36:12.716Z,5.90
2023-01-21T23:38:40.964Z,6.30
2023-01-21T23:41:10.734Z,6.30
2023-01-21T23:43:38.113Z,6.20
2023-01-21T23:46:07.217Z,6.10
2023-01-21T23:48:34.152Z,5.90
2023-01-21T23:51:03.349Z,5.80
2023-01-21T23:53:31.467Z,6.10
2023-01-21T23:56:20.705Z,6.20
2023-01-21T23:58:48.240Z,5.70
